createdAt,value
2022-09-09T00:00:16.723Z,9.57
2022-09-09T00:01:43.191Z,9.23
2022-09-09T00:02:57.487Z,7.93
2022-09-09T00:04:18.048Z,8.83
2022-09-09T00:05:32.629Z,9.47
2022-09-09T00:06:46.033Z,10.10
2022-09-09T00:08:00.097Z,9.47
2022-09-09T00:09:14.003Z,9.67
2022-09-09T00:10:25.443Z,8.43
2022-09-09T00:11:52.039Z,9.93
2022-09-09T00:13:03.495Z,11.13
2022-09-09T00:14:29.458Z,9.60
2022-09-09T00:15:43.767Z,9.20
2022-09-09T00:16:57.315Z,8.73
2022-09-09T00:18:15.699Z,11.00
2022-09-09T00:19:32.425Z,8.47
2022-09-09T00:20:43.833Z,7.50
2022-09-09T00:22:00.736Z,9.33
2022-09-09T00:23:25.517Z,9.87
2022-09-09T00:24:43.356Z,11.37
2022-09-09T00:26:00.899Z,9.77
2022-09-09T00:27:18.618Z,9.20
2022-09-09T00:28:33.566Z,9.73
2022-09-09T00:29:45.354Z,12.47
2022-09-09T00:30:58.362Z,9.00
2022-09-09T00:32:14.222Z,8.70
2022-09-09T00:33:27.648Z,8.13
2022-09-09T00:34:40.902Z,10.23
2022-09-09T00:35:54.379Z,8.67
2022-09-09T00:37:06.376Z,8.17
2022-09-09T00:38:20.488Z,7.97
2022-09-09T00:39:34.829Z,11.03
2022-09-09T00:41:10.130Z,11.17
2022-09-09T00:42:24.743Z,9.67
2022-09-09T00:43:39.789Z,14.13
2022-09-09T00:44:54.269Z,8.30
2022-09-09T00:46:11.894Z,8.97
2022-09-09T00:47:43.453Z,11.90
2022-09-09T00:49:13.383Z,10.77
2022-09-09T00:50:36.423Z,9.07
2022-09-09T00:52:02.532Z,12.43
2022-09-09T00:53:38.357Z,11.60
2022-09-09T00:54:55.940Z,8.40
2022-09-09T00:56:15.265Z,8.73
2022-09-09T00:57:30.774Z,11.83
2022-09-09T00:58:44.394Z,9.60
2022-09-09T01:00:01.945Z,9.37
2022-09-09T01:01:14.225Z,12.83
2022-09-09T01:02:31.586Z,10.73
2022-09-09T01:03:52.098Z,14.77
2022-09-09T01:05:09.277Z,9.57
2022-09-09T01:06:26.628Z,11.97
2022-09-09T01:07:38.101Z,9.30
2022-09-09T01:09:08.124Z,12.00
2022-09-09T01:10:27.637Z,12.27
2022-09-09T01:11:45.139Z,9.60
2022-09-09T01:12:59.241Z,12.43
2022-09-09T01:14:28.792Z,16.10
2022-09-09T01:15:42.046Z,14.27
2022-09-09T01:16:56.584Z,13.80
2022-09-09T01:18:08.103Z,10.83
2022-09-09T01:19:26.188Z,10.63
2022-09-09T01:20:52.756Z,10.30
2022-09-09T01:22:08.533Z,10.50
2022-09-09T01:23:40.218Z,14.50
2022-09-09T01:25:03.804Z,9.17
2022-09-09T01:26:21.329Z,10.63
2022-09-09T01:27:33.620Z,10.17
2022-09-09T01:28:46.574Z,10.87
2022-09-09T01:29:58.529Z,9.27
2022-09-09T01:31:12.514Z,8.93
2022-09-09T01:32:44.099Z,14.03
2022-09-09T01:33:55.713Z,10.70
2022-09-09T01:35:11.024Z,9.37
2022-09-09T01:36:42.730Z,9.70
2022-09-09T01:37:54.178Z,8.70
2022-09-09T01:39:05.845Z,8.60
2022-09-09T01:40:17.479Z,9.63
2022-09-09T01:41:29.060Z,11.40
2022-09-09T01:42:40.583Z,9.63
2022-09-09T01:43:52.888Z,11.53
2022-09-09T01:45:05.196Z,12.90
2022-09-09T01:46:17.433Z,10.97
2022-09-09T01:47:29.006Z,11.43
2022-09-09T01:48:41.571Z,14.70
2022-09-09T01:49:53.016Z,9.27
2022-09-09T01:51:04.545Z,10.53
2022-09-09T01:52:16.003Z,9.27
2022-09-09T01:53:27.533Z,12.63
2022-09-09T01:54:39.327Z,9.97
2022-09-09T01:55:50.709Z,10.00
2022-09-09T01:57:11.437Z,9.70
2022-09-09T01:58:26.092Z,10.97
2022-09-09T01:59:40.290Z,8.77
2022-09-09T02:01:03.012Z,9.97
2022-09-09T02:02:17.358Z,11.00
2022-09-09T02:03:30.102Z,8.20
2022-09-09T02:04:43.938Z,12.33
2022-09-09T02:06:01.547Z,9.23
2022-09-09T02:07:31.656Z,11.47
2022-09-09T02:08:43.334Z,9.37
2022-09-09T02:10:09.973Z,8.23
2022-09-09T02:11:23.265Z,18.37
2022-09-09T02:12:34.732Z,9.70
2022-09-09T02:13:50.121Z,10.47
2022-09-09T02:15:08.550Z,13.60
2022-09-09T02:16:23.038Z,11.37
2022-09-09T02:17:37.360Z,8.77
2022-09-09T02:18:51.375Z,9.07
2022-09-09T02:20:09.157Z,10.80
2022-09-09T02:21:20.794Z,10.77
2022-09-09T02:22:35.571Z,9.00
2022-09-09T02:23:49.836Z,9.53
2022-09-09T02:25:01.477Z,13.57
2022-09-09T02:26:14.354Z,11.80
2022-09-09T02:27:25.955Z,13.03
2022-09-09T02:28:38.322Z,13.20
2022-09-09T02:29:51.637Z,10.00
2022-09-09T02:31:03.233Z,8.87
2022-09-09T02:32:16.758Z,11.47
2022-09-09T02:33:30.233Z,7.97
2022-09-09T02:34:44.438Z,8.90
2022-09-09T02:35:57.662Z,9.87
2022-09-09T02:37:10.490Z,13.07
2022-09-09T02:38:23.195Z,10.67
2022-09-09T02:39:34.771Z,9.07
2022-09-09T02:40:46.748Z,19.93
2022-09-09T02:41:58.323Z,8.70
2022-09-09T02:43:09.903Z,9.73
2022-09-09T02:44:21.385Z,9.87
2022-09-09T02:45:43.285Z,13.00
2022-09-09T02:47:04.585Z,12.17
2022-09-09T02:48:23.835Z,9.40
2022-09-09T02:49:54.041Z,8.63
2022-09-09T02:51:16.642Z,9.07
2022-09-09T02:52:32.094Z,10.57
2022-09-09T02:53:47.154Z,6.37
2022-09-09T02:55:00.964Z,10.80
2022-09-09T02:56:20.941Z,10.80
2022-09-09T02:57:32.857Z,9.17
2022-09-09T02:58:44.691Z,9.20
2022-09-09T02:59:58.150Z,8.17
2022-09-09T03:01:09.861Z,8.23
2022-09-09T03:02:21.405Z,7.97
2022-09-09T03:03:33.157Z,8.77
2022-09-09T03:04:45.587Z,8.43
2022-09-09T03:05:57.969Z,8.30
2022-09-09T03:07:11.002Z,9.20
2022-09-09T03:08:22.522Z,10.07
2022-09-09T03:09:33.940Z,7.83
2022-09-09T03:10:45.937Z,8.00
2022-09-09T03:11:57.648Z,8.43
2022-09-09T03:13:09.233Z,9.83
2022-09-09T03:14:22.315Z,12.93
2022-09-09T03:15:34.176Z,8.67
2022-09-09T03:16:45.684Z,8.53
2022-09-09T03:17:58.165Z,8.73
2022-09-09T03:19:09.692Z,10.83
2022-09-09T03:20:21.378Z,10.67
2022-09-09T03:21:33.233Z,11.53
2022-09-09T03:22:46.047Z,9.33
2022-09-09T03:23:58.328Z,8.47
2022-09-09T03:25:09.881Z,10.33
2022-09-09T03:26:21.386Z,9.13
2022-09-09T03:27:33.525Z,10.53
2022-09-09T03:28:45.719Z,8.13
2022-09-09T03:29:57.153Z,11.63
2022-09-09T03:31:11.282Z,10.43
2022-09-09T03:32:23.529Z,12.27
2022-09-09T03:33:35.267Z,10.70
2022-09-09T03:34:48.396Z,10.17
2022-09-09T03:35:59.846Z,9.07
2022-09-09T03:37:12.154Z,8.23
2022-09-09T03:38:26.785Z,10.20
2022-09-09T03:39:38.405Z,11.43
2022-09-09T03:40:56.216Z,13.57
2022-09-09T03:42:07.782Z,9.60
2022-09-09T03:43:19.263Z,11.10
2022-09-09T03:44:31.516Z,9.47
2022-09-09T03:45:47.331Z,12.60
2022-09-09T03:47:01.266Z,9.70
2022-09-09T03:48:12.942Z,12.47
2022-09-09T03:49:25.184Z,11.50
2022-09-09T03:50:36.596Z,10.20
2022-09-09T03:51:48.024Z,9.63
2022-09-09T03:52:59.497Z,9.17
2022-09-09T03:54:11.310Z,9.07
2022-09-09T03:55:22.770Z,10.67
2022-09-09T03:56:34.244Z,9.83
2022-09-09T03:57:47.101Z,12.27
2022-09-09T03:58:58.649Z,8.73
2022-09-09T04:00:10.878Z,8.03
2022-09-09T04:01:22.417Z,9.80
2022-09-09T04:02:34.252Z,11.50
2022-09-09T04:03:46.204Z,14.20
2022-09-09T04:04:57.825Z,11.93
2022-09-09T04:06:10.630Z,10.20
2022-09-09T04:07:22.542Z,12.13
2022-09-09T04:08:34.090Z,9.10
2022-09-09T04:09:45.607Z,10.87
2022-09-09T04:10:58.976Z,11.50
2022-09-09T04:12:14.219Z,8.80
2022-09-09T04:13:26.302Z,10.57
2022-09-09T04:14:37.762Z,10.67
2022-09-09T04:15:53.610Z,10.60
2022-09-09T04:17:07.253Z,8.20
2022-09-09T04:18:20.122Z,11.60
2022-09-09T04:19:32.734Z,11.87
2022-09-09T04:20:44.447Z,12.20
2022-09-09T04:21:55.872Z,16.50
2022-09-09T04:23:07.280Z,10.33
2022-09-09T04:24:18.749Z,9.13
2022-09-09T04:25:30.158Z,12.23
2022-09-09T04:26:41.688Z,11.50
2022-09-09T04:27:56.341Z,8.10
2022-09-09T04:29:08.718Z,10.77
2022-09-09T04:30:20.163Z,9.17
2022-09-09T04:31:31.909Z,9.87
2022-09-09T04:32:43.358Z,10.47
2022-09-09T04:33:54.821Z,8.00
2022-09-09T04:35:06.393Z,12.53
2022-09-09T04:36:19.296Z,10.07
2022-09-09T04:37:31.347Z,15.93
2022-09-09T04:38:42.974Z,14.00
2022-09-09T04:39:54.458Z,13.37
2022-09-09T04:41:06.144Z,21.23
2022-09-09T04:42:18.801Z,10.80
2022-09-09T04:43:31.897Z,9.90
2022-09-09T04:44:43.359Z,13.87
2022-09-09T04:45:54.893Z,12.63
2022-09-09T04:47:06.411Z,11.27
2022-09-09T04:48:18.096Z,9.47
2022-09-09T04:49:29.533Z,12.67
2022-09-09T04:50:44.111Z,12.43
2022-09-09T04:51:55.512Z,18.70
2022-09-09T04:53:07.428Z,10.97
2022-09-09T04:54:18.855Z,10.17
2022-09-09T04:55:31.210Z,8.73
2022-09-09T04:56:43.510Z,8.87
2022-09-09T04:57:55.030Z,11.07
2022-09-09T04:59:06.620Z,8.00
2022-09-09T05:00:18.305Z,8.63
2022-09-09T05:01:30.207Z,8.17
2022-09-09T05:02:43.625Z,8.23
2022-09-09T05:03:55.284Z,16.43
2022-09-09T05:05:07.422Z,17.10
2022-09-09T05:06:20.151Z,12.87
2022-09-09T05:07:32.378Z,11.17
2022-09-09T05:08:44.500Z,18.53
2022-09-09T05:09:56.597Z,14.23
2022-09-09T05:11:15.101Z,13.63
2022-09-09T05:12:26.663Z,10.63
2022-09-09T05:13:41.338Z,10.03
2022-09-09T05:14:53.713Z,10.53
2022-09-09T05:16:05.608Z,11.20
2022-09-09T05:17:17.404Z,14.03
2022-09-09T05:18:28.942Z,12.40
2022-09-09T05:19:40.410Z,12.63
2022-09-09T05:20:52.084Z,11.17
2022-09-09T05:22:03.825Z,17.30
2022-09-09T05:23:15.633Z,11.43
2022-09-09T05:24:27.074Z,8.60
2022-09-09T05:25:38.962Z,14.90
2022-09-09T05:26:50.408Z,9.87
2022-09-09T05:28:02.021Z,12.27
2022-09-09T05:29:13.433Z,18.10
2022-09-09T05:30:27.423Z,25.40
2022-09-09T05:31:40.310Z,17.37
2022-09-09T05:32:51.800Z,15.43
2022-09-09T05:34:03.569Z,16.23
2022-09-09T05:35:15.002Z,13.93
2022-09-09T05:36:26.422Z,15.67
2022-09-09T05:37:37.866Z,15.67
2022-09-09T05:38:55.285Z,16.83
2022-09-09T05:40:07.859Z,13.83
2022-09-09T05:41:21.083Z,12.97
2022-09-09T05:42:33.554Z,15.10
2022-09-09T05:43:48.932Z,12.80
2022-09-09T05:45:00.414Z,9.70
2022-09-09T05:46:12.807Z,10.10
2022-09-09T05:47:24.336Z,11.43
2022-09-09T05:48:36.807Z,17.40
2022-09-09T05:49:48.368Z,11.07
2022-09-09T05:51:00.398Z,13.73
2022-09-09T05:52:11.835Z,22.20
2022-09-09T05:53:23.252Z,13.00
2022-09-09T05:54:34.740Z,11.97
2022-09-09T05:55:46.390Z,11.30
2022-09-09T05:56:57.836Z,10.70
2022-09-09T05:58:10.345Z,11.07
2022-09-09T05:59:21.848Z,11.17
2022-09-09T06:00:33.286Z,10.23
2022-09-09T06:01:46.336Z,13.40
2022-09-09T06:02:58.257Z,11.63
2022-09-09T06:04:09.958Z,9.20
2022-09-09T06:05:21.487Z,9.00
2022-09-09T06:06:37.683Z,28.40
2022-09-09T06:07:49.372Z,11.80
2022-09-09T06:09:00.835Z,9.77
2022-09-09T06:10:14.647Z,18.83
2022-09-09T06:11:27.530Z,12.73
2022-09-09T06:12:39.857Z,12.57
2022-09-09T06:13:54.517Z,11.60
2022-09-09T06:15:06.983Z,14.07
2022-09-09T06:16:20.266Z,13.07
2022-09-09T06:17:31.757Z,13.60
2022-09-09T06:18:43.581Z,14.63
2022-09-09T06:19:55.030Z,10.50
2022-09-09T06:21:07.897Z,10.30
2022-09-09T06:22:19.650Z,14.63
2022-09-09T06:23:31.559Z,13.00
2022-09-09T06:24:43.014Z,12.83
2022-09-09T06:26:06.730Z,13.07
2022-09-09T06:27:18.252Z,10.73
2022-09-09T06:28:30.031Z,14.87
2022-09-09T06:29:41.679Z,11.50
2022-09-09T06:30:59.336Z,15.40
2022-09-09T06:32:10.794Z,11.50
2022-09-09T06:33:22.282Z,14.37
2022-09-09T06:34:33.742Z,14.27
2022-09-09T06:35:53.021Z,12.53
2022-09-09T06:37:05.601Z,11.60
2022-09-09T06:38:17.040Z,14.77
2022-09-09T06:39:28.494Z,12.43
2022-09-09T06:40:40.815Z,16.23
2022-09-09T06:41:54.139Z,15.47
2022-09-09T06:43:06.378Z,11.73
2022-09-09T06:44:17.850Z,13.50
2022-09-09T06:45:29.894Z,16.07
2022-09-09T06:46:41.426Z,12.27
2022-09-09T06:47:55.612Z,16.70
2022-09-09T06:49:07.189Z,14.70
2022-09-09T06:50:19.407Z,22.17
2022-09-09T06:51:32.140Z,12.57
2022-09-09T06:52:43.578Z,10.20
2022-09-09T06:53:57.376Z,10.80
2022-09-09T06:55:09.273Z,12.53
2022-09-09T06:56:25.461Z,16.60
2022-09-09T06:57:37.853Z,11.10
2022-09-09T06:58:50.563Z,11.20
2022-09-09T07:00:02.258Z,12.40
2022-09-09T07:01:15.337Z,11.40
2022-09-09T07:02:27.190Z,15.33
2022-09-09T07:03:39.772Z,11.23
2022-09-09T07:04:52.652Z,17.10
2022-09-09T07:06:05.268Z,15.27
2022-09-09T07:07:16.887Z,12.90
2022-09-09T07:08:28.862Z,10.33
2022-09-09T07:09:41.218Z,11.73
2022-09-09T07:10:54.882Z,11.77
2022-09-09T07:12:06.916Z,9.53
2022-09-09T07:13:18.369Z,19.57
2022-09-09T07:14:29.825Z,9.53
2022-09-09T07:15:41.273Z,11.47
2022-09-09T07:16:54.545Z,11.43
2022-09-09T07:18:11.279Z,14.27
2022-09-09T07:19:22.791Z,11.20
2022-09-09T07:20:34.330Z,13.57
2022-09-09T07:21:46.432Z,9.67
2022-09-09T07:22:58.204Z,10.07
2022-09-09T07:24:11.290Z,13.13
2022-09-09T07:25:23.040Z,10.70
2022-09-09T07:26:34.586Z,11.70
2022-09-09T07:27:46.047Z,10.30
2022-09-09T07:28:58.175Z,12.63
2022-09-09T07:30:10.052Z,11.63
2022-09-09T07:31:22.949Z,10.60
2022-09-09T07:32:34.462Z,11.47
2022-09-09T07:33:46.246Z,9.67
2022-09-09T07:34:59.269Z,9.67
2022-09-09T07:36:13.423Z,11.23
2022-09-09T07:37:25.403Z,11.60
2022-09-09T07:38:44.660Z,10.13
2022-09-09T07:39:56.332Z,17.83
2022-09-09T07:41:12.678Z,9.43
2022-09-09T07:42:24.102Z,8.67
2022-09-09T07:43:35.776Z,9.17
2022-09-09T07:44:47.274Z,9.20
2022-09-09T07:45:59.416Z,9.53
2022-09-09T07:47:10.929Z,10.60
2022-09-09T07:48:22.406Z,9.23
2022-09-09T07:49:33.923Z,10.40
2022-09-09T07:50:45.437Z,8.60
2022-09-09T07:51:57.025Z,9.30
2022-09-09T07:53:08.821Z,8.57
2022-09-09T07:54:24.759Z,7.63
2022-09-09T07:55:36.299Z,8.77
2022-09-09T07:56:47.948Z,13.00
2022-09-09T07:57:59.407Z,7.53
2022-09-09T07:59:11.376Z,13.20
2022-09-09T08:00:23.216Z,9.93
2022-09-09T08:01:38.335Z,8.07
2022-09-09T08:02:50.002Z,10.17
2022-09-09T08:04:03.486Z,9.33
2022-09-09T08:05:16.081Z,10.93
2022-09-09T08:06:28.587Z,11.70
2022-09-09T08:07:40.026Z,11.43
2022-09-09T08:08:52.615Z,11.30
2022-09-09T08:10:04.535Z,9.07
2022-09-09T08:11:16.573Z,7.93
2022-09-09T08:12:28.613Z,8.20
2022-09-09T08:13:40.338Z,9.40
2022-09-09T08:14:52.658Z,9.30
2022-09-09T08:16:08.108Z,9.13
2022-09-09T08:17:19.667Z,9.90
2022-09-09T08:18:31.149Z,10.43
2022-09-09T08:19:42.574Z,9.87
2022-09-09T08:20:54.499Z,10.93
2022-09-09T08:22:06.029Z,9.10
2022-09-09T08:23:17.448Z,7.97
2022-09-09T08:24:29.050Z,8.43
2022-09-09T08:25:40.947Z,11.43
2022-09-09T08:26:54.836Z,10.20
2022-09-09T08:28:06.260Z,10.90
2022-09-09T08:29:18.107Z,7.60
2022-09-09T08:30:29.818Z,8.03
2022-09-09T08:31:43.455Z,10.90
2022-09-09T08:32:55.023Z,11.10
2022-09-09T08:34:07.399Z,20.30
2022-09-09T08:35:18.865Z,9.63
2022-09-09T08:36:31.344Z,8.10
2022-09-09T08:37:42.809Z,7.40
2022-09-09T08:38:55.505Z,7.23
2022-09-09T08:40:10.139Z,9.60
2022-09-09T08:41:40.897Z,14.47
2022-09-09T08:42:53.999Z,8.73
2022-09-09T08:44:08.286Z,10.93
2022-09-09T08:45:23.323Z,6.73
2022-09-09T08:46:43.989Z,9.43
2022-09-09T08:47:55.414Z,7.37
2022-09-09T08:49:12.714Z,8.90
2022-09-09T08:50:32.362Z,7.33
2022-09-09T08:51:43.885Z,7.30
2022-09-09T08:53:00.709Z,6.77
2022-09-09T08:54:12.437Z,8.73
2022-09-09T08:55:23.946Z,7.27
2022-09-09T08:56:35.875Z,10.47
2022-09-09T08:57:47.584Z,8.10
2022-09-09T08:59:00.843Z,8.10
2022-09-09T09:00:12.843Z,8.03
2022-09-09T09:01:24.282Z,7.00
2022-09-09T09:02:44.095Z,8.07
2022-09-09T09:04:03.659Z,8.97
2022-09-09T09:05:24.704Z,11.03
2022-09-09T09:06:38.935Z,7.73
2022-09-09T09:08:01.677Z,7.37
2022-09-09T09:09:25.824Z,14.47
2022-09-09T09:10:42.285Z,7.60
2022-09-09T09:11:54.595Z,7.83
2022-09-09T09:13:09.757Z,7.60
2022-09-09T09:14:25.433Z,7.80
2022-09-09T09:15:39.303Z,9.40
2022-09-09T09:17:00.390Z,7.87
2022-09-09T09:18:13.830Z,9.83
2022-09-09T09:19:27.304Z,11.77
2022-09-09T09:21:02.159Z,11.80
2022-09-09T09:22:21.056Z,6.93
2022-09-09T09:23:59.773Z,6.63
2022-09-09T09:25:27.063Z,8.90
2022-09-09T09:26:38.769Z,7.90
2022-09-09T09:28:28.942Z,7.70
2022-09-09T09:30:03.541Z,6.80
2022-09-09T09:31:13.340Z,8.60
2022-09-09T09:32:25.426Z,7.60
2022-09-09T09:33:47.579Z,7.60
2022-09-09T09:34:59.682Z,7.67
2022-09-09T09:36:11.330Z,8.23
2022-09-09T09:37:29.114Z,5.77
2022-09-09T09:40:13.783Z,8.33
2022-09-09T09:41:32.687Z,7.77
2022-09-09T09:42:52.519Z,8.60
2022-09-09T09:44:04.341Z,8.03
2022-09-09T09:45:29.567Z,8.17
2022-09-09T09:46:41.652Z,12.13
2022-09-09T09:48:04.148Z,7.47
2022-09-09T09:49:18.428Z,9.23
2022-09-09T09:50:30.278Z,8.10
2022-09-09T09:51:41.838Z,8.43
2022-09-09T09:52:58.500Z,9.87
2022-09-09T09:54:16.123Z,6.97
2022-09-09T09:55:30.981Z,7.20
2022-09-09T09:56:43.776Z,8.73
2022-09-09T09:57:55.386Z,8.30
2022-09-09T09:59:13.351Z,8.13
2022-09-09T10:00:38.151Z,7.23
2022-09-09T10:01:49.757Z,7.70
2022-09-09T10:03:01.636Z,6.90
2022-09-09T10:04:21.626Z,9.10
2022-09-09T10:05:37.900Z,7.07
2022-09-09T10:06:51.070Z,6.20
2022-09-09T10:08:03.481Z,8.30
2022-09-09T10:09:27.190Z,7.07
2022-09-09T10:10:52.869Z,9.87
2022-09-09T10:12:10.533Z,8.37
2022-09-09T10:13:37.964Z,9.00
2022-09-09T10:14:56.954Z,7.77
2022-09-09T10:16:08.444Z,6.93
2022-09-09T10:17:22.806Z,7.23
2022-09-09T10:18:37.432Z,8.17
2022-09-09T10:20:07.809Z,6.13
2022-09-09T10:21:34.303Z,6.13
2022-09-09T10:22:48.926Z,6.23
2022-09-09T10:24:12.383Z,11.03
2022-09-09T10:25:42.948Z,8.30
2022-09-09T10:27:06.844Z,8.63
2022-09-09T10:28:27.485Z,6.60
2022-09-09T10:29:45.062Z,6.83
2022-09-09T10:30:56.534Z,7.70
2022-09-09T10:32:26.838Z,6.90
2022-09-09T10:33:51.411Z,8.10
2022-09-09T10:35:14.586Z,7.53
2022-09-09T10:36:27.214Z,10.03
2022-09-09T10:37:43.972Z,9.70
2022-09-09T10:39:14.584Z,8.67
2022-09-09T10:40:31.113Z,6.13
2022-09-09T10:41:52.467Z,7.20
2022-09-09T10:43:13.291Z,8.57
2022-09-09T10:44:35.456Z,12.10
2022-09-09T10:45:49.723Z,9.70
2022-09-09T10:47:08.278Z,9.17
2022-09-09T10:48:20.185Z,6.83
2022-09-09T10:49:50.713Z,8.98
2022-09-09T10:51:05.392Z,10.20
2022-09-09T10:52:17.203Z,10.80
2022-09-09T10:53:31.693Z,7.27
2022-09-09T10:54:59.422Z,8.98
2022-09-09T10:56:13.229Z,9.17
2022-09-09T10:57:33.012Z,7.30
2022-09-09T10:58:56.296Z,9.32
2022-09-09T11:00:15.720Z,7.30
2022-09-09T11:01:30.836Z,10.07
2022-09-09T11:02:43.252Z,6.97
2022-09-09T11:03:57.677Z,5.60
2022-09-09T11:05:14.937Z,9.73
2022-09-09T11:06:29.993Z,5.78
2022-09-09T11:07:49.048Z,7.83
2022-09-09T11:09:02.380Z,6.53
2022-09-09T11:10:19.247Z,8.20
2022-09-09T11:11:33.847Z,9.75
2022-09-09T11:12:47.097Z,8.50
2022-09-09T11:14:02.962Z,6.82
2022-09-09T11:15:17.160Z,10.02
2022-09-09T11:16:31.209Z,7.38
2022-09-09T11:17:54.384Z,7.63
2022-09-09T11:19:12.706Z,9.43
2022-09-09T11:20:26.250Z,5.80
2022-09-09T11:21:47.738Z,9.15
2022-09-09T11:23:13.537Z,13.40
2022-09-09T11:24:29.082Z,9.35
2022-09-09T11:25:42.834Z,10.70
2022-09-09T11:26:58.067Z,7.63
2022-09-09T11:28:23.431Z,6.57
2022-09-09T11:29:53.892Z,7.50
2022-09-09T11:31:05.496Z,7.05
2022-09-09T11:32:17.767Z,6.25
2022-09-09T11:33:38.719Z,9.57
2022-09-09T11:35:03.348Z,7.10
2022-09-09T11:36:26.211Z,6.22
2022-09-09T11:37:40.454Z,5.55
2022-09-09T11:38:53.016Z,5.90
2022-09-09T11:40:10.982Z,6.70
2022-09-09T11:41:22.697Z,8.43
2022-09-09T11:42:34.134Z,5.82
2022-09-09T11:43:53.136Z,7.18
2022-09-09T11:45:12.356Z,7.05
2022-09-09T11:46:34.859Z,6.80
2022-09-09T11:47:54.188Z,5.95
2022-09-09T11:49:07.084Z,6.88
2022-09-09T11:50:19.835Z,7.03
2022-09-09T11:51:32.601Z,15.43
2022-09-09T11:52:47.093Z,14.57
2022-09-09T11:53:59.950Z,8.20
2022-09-09T11:55:13.255Z,7.05
2022-09-09T11:56:27.215Z,7.25
2022-09-09T11:57:39.308Z,6.18
2022-09-09T11:58:56.656Z,5.90
2022-09-09T12:00:08.872Z,5.57
2022-09-09T12:01:37.206Z,10.75
2022-09-09T12:02:51.779Z,5.68
2022-09-09T12:04:12.404Z,7.22
2022-09-09T12:05:24.642Z,6.47
2022-09-09T12:06:56.198Z,5.80
2022-09-09T12:08:10.670Z,6.13
2022-09-09T12:09:22.117Z,5.45
2022-09-09T12:10:36.157Z,6.95
2022-09-09T12:11:47.672Z,8.85
2022-09-09T12:13:10.605Z,9.57
2022-09-09T12:14:39.081Z,5.72
2022-09-09T12:15:51.870Z,6.45
2022-09-09T12:17:29.768Z,8.27
2022-09-09T12:18:42.515Z,5.43
2022-09-09T12:20:12.360Z,6.10
2022-09-09T12:21:37.553Z,5.82
2022-09-09T12:23:04.058Z,10.85
2022-09-09T12:24:28.191Z,10.13
2022-09-09T12:25:50.521Z,5.38
2022-09-09T12:27:20.942Z,5.95
2022-09-09T12:28:58.781Z,6.43
2022-09-09T12:30:15.363Z,7.53
2022-09-09T12:31:35.517Z,6.05
2022-09-09T12:32:46.986Z,9.32
2022-09-09T12:34:04.157Z,7.40
2022-09-09T12:35:23.519Z,10.23
2022-09-09T12:36:35.151Z,8.23
2022-09-09T12:38:00.214Z,5.78
2022-09-09T12:39:18.447Z,6.47
2022-09-09T12:40:32.550Z,12.88
2022-09-09T12:41:52.027Z,7.82
2022-09-09T12:43:17.462Z,6.82
2022-09-09T12:44:29.790Z,8.05
2022-09-09T12:45:41.758Z,7.95
2022-09-09T12:46:53.776Z,6.10
2022-09-09T12:48:08.049Z,11.27
2022-09-09T12:49:39.919Z,7.80
2022-09-09T12:50:52.847Z,7.90
2022-09-09T12:52:06.942Z,8.52
2022-09-09T12:53:19.163Z,7.03
2022-09-09T12:54:31.226Z,8.48
2022-09-09T12:55:51.040Z,7.65
2022-09-09T12:57:02.551Z,4.63
2022-09-09T12:58:14.910Z,6.72
2022-09-09T12:59:47.155Z,6.28
2022-09-09T13:00:58.751Z,7.07
2022-09-09T13:02:12.719Z,7.65
2022-09-09T13:03:26.156Z,6.78
2022-09-09T13:04:37.651Z,11.50
2022-09-09T13:05:49.282Z,7.80
2022-09-09T13:07:08.227Z,7.07
2022-09-09T13:08:21.882Z,6.45
2022-09-09T13:09:33.605Z,7.57
2022-09-09T13:10:55.473Z,7.00
2022-09-09T13:12:15.162Z,8.93
2022-09-09T13:13:31.161Z,14.25
2022-09-09T13:14:44.897Z,8.98
2022-09-09T13:16:00.649Z,13.77
2022-09-09T13:17:23.290Z,8.30
2022-09-09T13:18:37.547Z,11.73
2022-09-09T13:19:51.474Z,8.70
2022-09-09T13:21:02.984Z,10.63
2022-09-09T13:22:14.523Z,5.07
2022-09-09T13:23:31.372Z,6.07
2022-09-09T13:24:43.720Z,6.03
2022-09-09T13:25:59.284Z,5.13
2022-09-09T13:27:29.385Z,7.32
2022-09-09T13:28:40.832Z,8.25
2022-09-09T13:29:56.003Z,5.28
2022-09-09T13:31:20.670Z,6.53
2022-09-09T13:32:32.697Z,7.07
2022-09-09T13:33:44.136Z,7.82
2022-09-09T13:34:57.144Z,8.45
2022-09-09T13:36:09.966Z,6.88
2022-09-09T13:37:28.648Z,9.48
2022-09-09T13:38:54.069Z,9.85
2022-09-09T13:40:07.317Z,7.47
2022-09-09T13:41:26.812Z,9.68
2022-09-09T13:42:41.472Z,6.80
2022-09-09T13:43:53.372Z,5.10
2022-09-09T13:45:07.792Z,6.15
2022-09-09T13:46:31.253Z,6.93
2022-09-09T14:36:49.457Z,5.13
2022-09-09T14:38:18.424Z,6.90
2022-09-09T14:39:38.675Z,5.67
2022-09-09T14:41:02.649Z,5.78
2022-09-09T14:44:19.280Z,9.93
2022-09-09T14:46:13.617Z,6.93
2022-09-09T14:47:43.135Z,7.83
2022-09-09T14:48:58.141Z,5.57
2022-09-09T14:50:18.309Z,14.35
2022-09-09T14:52:03.903Z,9.45
2022-09-09T14:55:12.623Z,6.67
2022-09-09T14:56:45.651Z,6.88
2022-09-09T14:58:46.046Z,6.63
2022-09-09T15:02:07.297Z,11.07
2022-09-09T15:07:03.473Z,6.68
2022-09-09T15:08:30.323Z,9.07
2022-09-09T15:10:06.694Z,8.90
2022-09-09T15:11:48.761Z,11.40
2022-09-09T15:13:20.230Z,12.87
2022-09-09T15:14:38.457Z,6.97
2022-09-09T15:15:54.040Z,8.07
2022-09-09T15:19:13.473Z,5.37
2022-09-09T15:21:00.024Z,10.13
2022-09-09T15:22:57.610Z,7.15
2022-09-09T15:27:54.615Z,13.85
2022-09-09T15:29:22.708Z,7.47
2022-09-09T15:30:58.382Z,6.47
2022-09-09T15:32:57.350Z,8.57
2022-09-09T15:34:20.382Z,5.33
2022-09-09T15:37:32.062Z,6.47
2022-09-09T15:43:55.749Z,11.67
2022-09-09T15:45:54.770Z,8.23
2022-09-09T15:47:32.037Z,6.30
2022-09-09T15:49:42.099Z,6.00
2022-09-09T15:52:38.366Z,5.77
2022-09-09T15:56:18.978Z,7.70
2022-09-09T16:01:20.687Z,5.50
2022-09-09T16:03:11.875Z,7.60
2022-09-09T16:06:14.733Z,13.67
2022-09-09T16:07:57.627Z,28.30
2022-09-09T16:09:15.463Z,9.53
2022-09-09T16:11:07.010Z,6.77
2022-09-09T16:12:43.425Z,10.30
2022-09-09T16:15:36.026Z,6.30
2022-09-09T16:17:10.261Z,5.60
2022-09-09T16:18:26.705Z,8.70
2022-09-09T16:19:40.707Z,11.27
2022-09-09T16:20:58.241Z,11.60
2022-09-09T16:22:12.870Z,191.27
2022-09-09T16:23:29.627Z,55.23
2022-09-09T16:27:34.784Z,236.00
2022-09-09T16:29:04.482Z,51.33
2022-09-09T16:30:27.680Z,39.17
2022-09-09T16:31:49.717Z,53.90
2022-09-09T16:33:04.198Z,71.60
2022-09-09T16:34:28.732Z,47.30
2022-09-09T16:35:51.896Z,18.77
2022-09-09T16:37:12.706Z,12.27
2022-09-09T16:38:36.918Z,8.43
2022-09-09T17:05:31.358Z,43.37
2022-09-09T17:06:42.975Z,55.43
2022-09-09T17:07:56.482Z,41.30
2022-09-09T17:09:11.813Z,12.60
2022-09-09T17:10:23.235Z,13.27
2022-09-09T17:11:34.960Z,17.33
2022-09-09T17:12:47.130Z,13.23
2022-09-09T17:14:01.815Z,234.77
2022-09-09T17:15:13.266Z,122.63
2022-09-09T17:16:25.818Z,74.37
2022-09-09T17:17:37.315Z,518.50
2022-09-09T17:18:52.075Z,315.20
2022-09-09T17:20:03.756Z,568.63
2022-09-09T17:21:16.553Z,450.83
2022-09-09T17:22:28.010Z,173.27
2022-09-09T17:23:39.872Z,147.00
2022-09-09T17:24:51.391Z,60.10
2022-09-09T17:26:02.915Z,30.43
2022-09-09T17:27:14.854Z,22.47
2022-09-09T17:28:30.747Z,30.47
2022-09-09T17:29:42.199Z,17.93
2022-09-09T17:30:53.851Z,20.50
2022-09-09T17:32:08.975Z,14.23
2022-09-09T17:33:21.221Z,16.43
2022-09-09T17:34:32.662Z,12.23
2022-09-09T17:35:49.226Z,11.10
2022-09-09T17:37:00.649Z,11.47
2022-09-09T17:38:13.102Z,7.37
2022-09-09T17:39:24.555Z,10.50
2022-09-09T17:40:35.996Z,11.77
2022-09-09T17:41:47.565Z,9.07
2022-09-09T17:42:59.052Z,13.27
2022-09-09T17:44:11.039Z,62.93
2022-09-09T17:45:24.198Z,53.33
2022-09-09T17:46:41.288Z,103.67
2022-09-09T17:47:55.232Z,77.97
2022-09-09T17:49:10.273Z,49.57
2022-09-09T17:50:22.180Z,29.70
2022-09-09T17:51:34.269Z,21.27
2022-09-09T17:52:45.781Z,31.70
2022-09-09T17:53:59.900Z,16.73
2022-09-09T17:55:11.395Z,20.20
2022-09-09T17:56:24.604Z,21.80
2022-09-09T17:57:36.434Z,15.63
2022-09-09T17:58:48.736Z,9.53
2022-09-09T18:00:00.203Z,12.70
2022-09-09T18:01:13.573Z,9.20
2022-09-09T18:02:25.174Z,6.67
2022-09-09T18:03:38.097Z,23.13
2022-09-09T18:04:49.777Z,11.40
2022-09-09T18:06:02.576Z,11.40
2022-09-09T18:07:14.332Z,6.37
2022-09-09T18:08:25.767Z,8.90
2022-09-09T18:09:39.085Z,9.37
2022-09-09T18:10:55.874Z,8.10
2022-09-09T18:12:07.825Z,9.17
2022-09-09T18:13:19.284Z,9.17
2022-09-09T18:14:31.506Z,10.30
2022-09-09T18:15:49.337Z,10.33
2022-09-09T18:17:02.477Z,8.43
2022-09-09T18:18:14.251Z,9.07
2022-09-09T18:19:26.852Z,13.23
2022-09-09T18:20:38.312Z,8.30
2022-09-09T18:21:50.351Z,10.30
2022-09-09T18:23:03.299Z,7.27
2022-09-09T18:24:16.323Z,9.27
2022-09-09T18:25:28.259Z,8.97
2022-09-09T18:26:40.829Z,190.70